sensor_id;sensor_type;location;lat;lon;timestamp;P1;durP1;ratioP1;P2;durP2;ratioP2
16436;SDS011;8328;52.206;21.006;2024-02-23T00:01:50;98.60;;;40.28;;
16436;SDS011;8328;52.206;21.006;2024-02-23T00:04:16;94.60;;;38.55;;
16436;SDS011;8328;52.206;21.006;2024-02-23T00:06:44;99.00;;;39.72;;
16436;SDS011;8328;52.206;21.006;2024-02-23T00:09:10;99.25;;;39.65;;
16436;SDS011;8328;52.206;21.006;2024-02-23T00:11:39;99.88;;;40.22;;
16436;SDS011;8328;52.206;21.006;2024-02-23T00:14:09;100.20;;;40.75;;
16436;SDS011;8328;52.206;21.006;2024-02-23T00:16:38;98.18;;;39.33;;
16436;SDS011;8328;52.206;21.006;2024-02-23T00:19:05;99.28;;;40.13;;
16436;SDS011;8328;52.206;21.006;2024-02-23T00:21:35;104.95;;;41.80;;
16436;SDS011;8328;52.206;21.006;2024-02-23T00:24:07;102.75;;;41.03;;
16436;SDS011;8328;52.206;21.006;2024-02-23T00:26:33;98.30;;;39.40;;
16436;SDS011;8328;52.206;21.006;2024-02-23T00:28:59;98.33;;;39.53;;
16436;SDS011;8328;52.206;21.006;2024-02-23T00:31:25;97.57;;;39.77;;
16436;SDS011;8328;52.206;21.006;2024-02-23T00:33:50;97.07;;;38.83;;
16436;SDS011;8328;52.206;21.006;2024-02-23T00:36:16;97.63;;;39.93;;
16436;SDS011;8328;52.206;21.006;2024-02-23T00:38:42;99.33;;;39.87;;
16436;SDS011;8328;52.206;21.006;2024-02-23T00:41:08;96.60;;;39.53;;
16436;SDS011;8328;52.206;21.006;2024-02-23T00:43:40;99.43;;;40.23;;
16436;SDS011;8328;52.206;21.006;2024-02-23T00:46:06;99.90;;;40.97;;
16436;SDS011;8328;52.206;21.006;2024-02-23T00:48:32;97.75;;;39.42;;
16436;SDS011;8328;52.206;21.006;2024-02-23T00:50:58;102.37;;;41.57;;
16436;SDS011;8328;52.206;21.006;2024-02-23T00:53:24;99.67;;;40.27;;
16436;SDS011;8328;52.206;21.006;2024-02-23T00:55:50;98.30;;;39.73;;
16436;SDS011;8328;52.206;21.006;2024-02-23T00:58:16;94.03;;;38.07;;
16436;SDS011;8328;52.206;21.006;2024-02-23T01:00:42;95.85;;;38.80;;
16436;SDS011;8328;52.206;21.006;2024-02-23T01:03:07;101.90;;;40.90;;
16436;SDS011;8328;52.206;21.006;2024-02-23T01:05:33;102.03;;;41.27;;
16436;SDS011;8328;52.206;21.006;2024-02-23T01:07:59;96.20;;;38.50;;
16436;SDS011;8328;52.206;21.006;2024-02-23T01:10:24;98.10;;;39.63;;
16436;SDS011;8328;52.206;21.006;2024-02-23T01:12:50;101.27;;;40.90;;
16436;SDS011;8328;52.206;21.006;2024-02-23T01:15:16;99.23;;;39.80;;
16436;SDS011;8328;52.206;21.006;2024-02-23T01:17:42;96.87;;;39.23;;
16436;SDS011;8328;52.206;21.006;2024-02-23T01:20:07;103.60;;;41.57;;
16436;SDS011;8328;52.206;21.006;2024-02-23T01:22:33;94.45;;;38.13;;
16436;SDS011;8328;52.206;21.006;2024-02-23T01:24:59;101.60;;;40.93;;
16436;SDS011;8328;52.206;21.006;2024-02-23T01:27:25;96.90;;;39.23;;
16436;SDS011;8328;52.206;21.006;2024-02-23T01:29:51;96.27;;;38.73;;
16436;SDS011;8328;52.206;21.006;2024-02-23T01:32:16;100.03;;;40.67;;
16436;SDS011;8328;52.206;21.006;2024-02-23T01:34:42;95.13;;;38.93;;
16436;SDS011;8328;52.206;21.006;2024-02-23T01:37:08;98.23;;;40.73;;
16436;SDS011;8328;52.206;21.006;2024-02-23T01:39:34;96.33;;;39.60;;
16436;SDS011;8328;52.206;21.006;2024-02-23T01:41:59;97.00;;;39.77;;
16436;SDS011;8328;52.206;21.006;2024-02-23T01:44:25;92.70;;;38.17;;
16436;SDS011;8328;52.206;21.006;2024-02-23T01:46:51;92.80;;;38.10;;
16436;SDS011;8328;52.206;21.006;2024-02-23T01:49:17;97.37;;;39.87;;
16436;SDS011;8328;52.206;21.006;2024-02-23T01:51:43;96.43;;;39.47;;
16436;SDS011;8328;52.206;21.006;2024-02-23T01:54:09;98.80;;;40.40;;
16436;SDS011;8328;52.206;21.006;2024-02-23T01:56:35;98.55;;;40.33;;
16436;SDS011;8328;52.206;21.006;2024-02-23T01:59:04;94.00;;;38.15;;
16436;SDS011;8328;52.206;21.006;2024-02-23T02:01:31;106.85;;;43.78;;
16436;SDS011;8328;52.206;21.006;2024-02-23T02:03:58;98.57;;;40.17;;
16436;SDS011;8328;52.206;21.006;2024-02-23T02:06:24;97.90;;;39.72;;
16436;SDS011;8328;52.206;21.006;2024-02-23T02:08:50;102.32;;;41.15;;
16436;SDS011;8328;52.206;21.006;2024-02-23T02:11:16;100.30;;;40.53;;
16436;SDS011;8328;52.206;21.006;2024-02-23T02:13:41;95.50;;;39.40;;
16436;SDS011;8328;52.206;21.006;2024-02-23T02:16:07;103.70;;;42.97;;
16436;SDS011;8328;52.206;21.006;2024-02-23T02:18:33;97.53;;;39.77;;
16436;SDS011;8328;52.206;21.006;2024-02-23T02:20:59;98.90;;;40.43;;
16436;SDS011;8328;52.206;21.006;2024-02-23T02:23:24;99.30;;;40.00;;
16436;SDS011;8328;52.206;21.006;2024-02-23T02:25:56;94.22;;;38.33;;
16436;SDS011;8328;52.206;21.006;2024-02-23T02:28:23;99.10;;;40.05;;
16436;SDS011;8328;52.206;21.006;2024-02-23T02:30:53;98.47;;;39.75;;
16436;SDS011;8328;52.206;21.006;2024-02-23T02:33:19;98.93;;;40.45;;
16436;SDS011;8328;52.206;21.006;2024-02-23T02:35:46;95.97;;;38.80;;
16436;SDS011;8328;52.206;21.006;2024-02-23T02:38:12;95.53;;;38.80;;
16436;SDS011;8328;52.206;21.006;2024-02-23T02:40:38;95.80;;;39.17;;
16436;SDS011;8328;52.206;21.006;2024-02-23T02:43:04;93.93;;;38.38;;
16436;SDS011;8328;52.206;21.006;2024-02-23T02:45:31;97.82;;;39.70;;
16436;SDS011;8328;52.206;21.006;2024-02-23T02:47:56;96.97;;;39.67;;
16436;SDS011;8328;52.206;21.006;2024-02-23T02:50:22;96.73;;;39.10;;
16436;SDS011;8328;52.206;21.006;2024-02-23T02:52:48;94.70;;;38.73;;
16436;SDS011;8328;52.206;21.006;2024-02-23T02:55:14;94.90;;;38.57;;
16436;SDS011;8328;52.206;21.006;2024-02-23T02:57:39;95.50;;;38.90;;
16436;SDS011;8328;52.206;21.006;2024-02-23T03:00:05;97.53;;;39.20;;
16436;SDS011;8328;52.206;21.006;2024-02-23T03:02:34;95.70;;;38.70;;
16436;SDS011;8328;52.206;21.006;2024-02-23T03:05:00;95.10;;;39.10;;
16436;SDS011;8328;52.206;21.006;2024-02-23T03:07:29;100.73;;;40.57;;
16436;SDS011;8328;52.206;21.006;2024-02-23T03:09:54;98.07;;;39.03;;
16436;SDS011;8328;52.206;21.006;2024-02-23T03:12:20;96.47;;;38.47;;
16436;SDS011;8328;52.206;21.006;2024-02-23T03:14:46;94.57;;;38.03;;
16436;SDS011;8328;52.206;21.006;2024-02-23T03:17:12;97.00;;;39.07;;
16436;SDS011;8328;52.206;21.006;2024-02-23T03:19:38;96.50;;;38.27;;
16436;SDS011;8328;52.206;21.006;2024-02-23T03:22:04;97.53;;;39.00;;
16436;SDS011;8328;52.206;21.006;2024-02-23T03:24:30;96.65;;;38.88;;
16436;SDS011;8328;52.206;21.006;2024-02-23T03:26:59;97.37;;;39.63;;
16436;SDS011;8328;52.206;21.006;2024-02-23T03:29:25;98.20;;;39.15;;
16436;SDS011;8328;52.206;21.006;2024-02-23T03:31:54;98.15;;;39.13;;
16436;SDS011;8328;52.206;21.006;2024-02-23T03:34:20;100.82;;;40.05;;
16436;SDS011;8328;52.206;21.006;2024-02-23T03:36:46;93.90;;;38.07;;
16436;SDS011;8328;52.206;21.006;2024-02-23T03:39:12;97.22;;;39.95;;
16436;SDS011;8328;52.206;21.006;2024-02-23T03:41:39;95.50;;;39.00;;
16436;SDS011;8328;52.206;21.006;2024-02-23T03:44:04;95.80;;;38.77;;
16436;SDS011;8328;52.206;21.006;2024-02-23T03:46:30;98.83;;;39.53;;
16436;SDS011;8328;52.206;21.006;2024-02-23T03:48:56;95.53;;;38.53;;
16436;SDS011;8328;52.206;21.006;2024-02-23T03:51:22;99.60;;;40.58;;
16436;SDS011;8328;52.206;21.006;2024-02-23T03:53:48;97.80;;;39.80;;
16436;SDS011;8328;52.206;21.006;2024-02-23T03:56:15;94.85;;;38.20;;
16436;SDS011;8328;52.206;21.006;2024-02-23T03:58:41;97.70;;;39.55;;
16436;SDS011;8328;52.206;21.006;2024-02-23T04:01:06;100.93;;;40.47;;
16436;SDS011;8328;52.206;21.006;2024-02-23T04:03:32;97.33;;;39.40;;
16436;SDS011;8328;52.206;21.006;2024-02-23T04:05:58;97.63;;;39.50;;
16436;SDS011;8328;52.206;21.006;2024-02-23T04:08:24;97.43;;;39.57;;
16436;SDS011;8328;52.206;21.006;2024-02-23T04:10:49;96.43;;;38.97;;
16436;SDS011;8328;52.206;21.006;2024-02-23T04:13:15;95.60;;;38.60;;
16436;SDS011;8328;52.206;21.006;2024-02-23T04:15:43;97.60;;;39.67;;
16436;SDS011;8328;52.206;21.006;2024-02-23T04:18:09;95.90;;;38.97;;
16436;SDS011;8328;52.206;21.006;2024-02-23T04:20:35;95.93;;;39.13;;
16436;SDS011;8328;52.206;21.006;2024-02-23T04:23:00;94.73;;;38.87;;
16436;SDS011;8328;52.206;21.006;2024-02-23T04:25:26;97.87;;;39.47;;
16436;SDS011;8328;52.206;21.006;2024-02-23T04:27:52;94.63;;;38.45;;
16436;SDS011;8328;52.206;21.006;2024-02-23T04:30:18;95.30;;;38.63;;
16436;SDS011;8328;52.206;21.006;2024-02-23T04:32:44;94.53;;;38.53;;
16436;SDS011;8328;52.206;21.006;2024-02-23T04:35:09;96.83;;;39.43;;
16436;SDS011;8328;52.206;21.006;2024-02-23T04:37:35;93.87;;;38.10;;
16436;SDS011;8328;52.206;21.006;2024-02-23T04:40:01;96.20;;;39.87;;
16436;SDS011;8328;52.206;21.006;2024-02-23T04:42:27;92.53;;;37.75;;
16436;SDS011;8328;52.206;21.006;2024-02-23T04:44:53;96.97;;;39.50;;
16436;SDS011;8328;52.206;21.006;2024-02-23T04:47:20;95.47;;;39.17;;
16436;SDS011;8328;52.206;21.006;2024-02-23T04:49:46;96.82;;;39.60;;
16436;SDS011;8328;52.206;21.006;2024-02-23T04:52:12;96.33;;;38.97;;
16436;SDS011;8328;52.206;21.006;2024-02-23T04:54:37;98.40;;;40.33;;
16436;SDS011;8328;52.206;21.006;2024-02-23T04:57:03;100.50;;;39.93;;
16436;SDS011;8328;52.206;21.006;2024-02-23T04:59:29;102.97;;;40.87;;
16436;SDS011;8328;52.206;21.006;2024-02-23T05:01:57;98.28;;;39.55;;
16436;SDS011;8328;52.206;21.006;2024-02-23T05:04:23;99.47;;;38.97;;
16436;SDS011;8328;52.206;21.006;2024-02-23T05:06:48;98.80;;;38.93;;
16436;SDS011;8328;52.206;21.006;2024-02-23T05:09:14;95.80;;;38.23;;
16436;SDS011;8328;52.206;21.006;2024-02-23T05:11:40;96.73;;;38.90;;
16436;SDS011;8328;52.206;21.006;2024-02-23T05:14:06;95.67;;;38.00;;
16436;SDS011;8328;52.206;21.006;2024-02-23T05:16:32;97.80;;;39.80;;
16436;SDS011;8328;52.206;21.006;2024-02-23T05:18:57;97.60;;;38.70;;
16436;SDS011;8328;52.206;21.006;2024-02-23T05:21:23;99.83;;;39.73;;
16436;SDS011;8328;52.206;21.006;2024-02-23T05:23:51;96.75;;;39.15;;
16436;SDS011;8328;52.206;21.006;2024-02-23T05:26:17;97.88;;;39.50;;
16436;SDS011;8328;52.206;21.006;2024-02-23T05:28:42;93.90;;;38.77;;
16436;SDS011;8328;52.206;21.006;2024-02-23T05:31:09;96.28;;;39.35;;
16436;SDS011;8328;52.206;21.006;2024-02-23T05:33:35;95.50;;;38.85;;
16436;SDS011;8328;52.206;21.006;2024-02-23T05:36:03;101.03;;;40.45;;
16436;SDS011;8328;52.206;21.006;2024-02-23T05:38:29;94.25;;;38.40;;
16436;SDS011;8328;52.206;21.006;2024-02-23T05:40:55;95.65;;;38.00;;
16436;SDS011;8328;52.206;21.006;2024-02-23T05:43:21;97.10;;;39.25;;
16436;SDS011;8328;52.206;21.006;2024-02-23T05:45:47;95.72;;;39.05;;
16436;SDS011;8328;52.206;21.006;2024-02-23T05:48:13;99.25;;;40.55;;
16436;SDS011;8328;52.206;21.006;2024-02-23T05:50:39;93.13;;;37.77;;
16436;SDS011;8328;52.206;21.006;2024-02-23T05:53:05;101.83;;;40.57;;
16436;SDS011;8328;52.206;21.006;2024-02-23T05:55:30;96.17;;;40.93;;
16436;SDS011;8328;52.206;21.006;2024-02-23T05:57:56;96.67;;;39.73;;
16436;SDS011;8328;52.206;21.006;2024-02-23T06:00:22;95.40;;;38.73;;
16436;SDS011;8328;52.206;21.006;2024-02-23T06:02:48;94.80;;;39.30;;
16436;SDS011;8328;52.206;21.006;2024-02-23T06:05:14;96.03;;;39.03;;
16436;SDS011;8328;52.206;21.006;2024-02-23T06:07:40;95.07;;;39.63;;
16436;SDS011;8328;52.206;21.006;2024-02-23T06:10:06;95.55;;;38.92;;
16436;SDS011;8328;52.206;21.006;2024-02-23T06:12:32;95.00;;;39.33;;
16436;SDS011;8328;52.206;21.006;2024-02-23T06:14:58;95.67;;;39.63;;
16436;SDS011;8328;52.206;21.006;2024-02-23T06:17:24;96.77;;;39.37;;
16436;SDS011;8328;52.206;21.006;2024-02-23T06:19:50;97.10;;;39.47;;
16436;SDS011;8328;52.206;21.006;2024-02-23T06:22:18;96.28;;;38.88;;
16436;SDS011;8328;52.206;21.006;2024-02-23T06:24:46;95.15;;;39.22;;
16436;SDS011;8328;52.206;21.006;2024-02-23T06:27:12;97.38;;;43.15;;
16436;SDS011;8328;52.206;21.006;2024-02-23T06:29:38;96.83;;;39.20;;
16436;SDS011;8328;52.206;21.006;2024-02-23T06:32:04;100.53;;;40.30;;
16436;SDS011;8328;52.206;21.006;2024-02-23T06:34:30;103.07;;;40.22;;
16436;SDS011;8328;52.206;21.006;2024-02-23T06:36:57;112.20;;;43.58;;
16436;SDS011;8328;52.206;21.006;2024-02-23T06:39:22;105.70;;;40.50;;
16436;SDS011;8328;52.206;21.006;2024-02-23T06:41:48;105.60;;;40.13;;
16436;SDS011;8328;52.206;21.006;2024-02-23T06:44:14;109.03;;;41.13;;
16436;SDS011;8328;52.206;21.006;2024-02-23T06:46:40;106.40;;;39.80;;
16436;SDS011;8328;52.206;21.006;2024-02-23T06:49:06;110.83;;;41.70;;
16436;SDS011;8328;52.206;21.006;2024-02-23T06:51:32;118.75;;;45.03;;
16436;SDS011;8328;52.206;21.006;2024-02-23T06:53:58;112.90;;;41.87;;
16436;SDS011;8328;52.206;21.006;2024-02-23T06:56:24;107.33;;;40.03;;
16436;SDS011;8328;52.206;21.006;2024-02-23T06:58:50;109.78;;;40.70;;
16436;SDS011;8328;52.206;21.006;2024-02-23T07:01:16;107.53;;;40.70;;
16436;SDS011;8328;52.206;21.006;2024-02-23T07:03:41;118.87;;;43.90;;
16436;SDS011;8328;52.206;21.006;2024-02-23T07:06:09;122.45;;;45.97;;
16436;SDS011;8328;52.206;21.006;2024-02-23T07:08:38;114.85;;;42.10;;
16436;SDS011;8328;52.206;21.006;2024-02-23T07:11:03;114.30;;;42.57;;
16436;SDS011;8328;52.206;21.006;2024-02-23T07:13:29;112.67;;;41.80;;
16436;SDS011;8328;52.206;21.006;2024-02-23T07:15:55;107.00;;;40.10;;
16436;SDS011;8328;52.206;21.006;2024-02-23T07:18:21;108.93;;;40.93;;
16436;SDS011;8328;52.206;21.006;2024-02-23T07:20:47;106.78;;;40.17;;
16436;SDS011;8328;52.206;21.006;2024-02-23T07:23:13;103.23;;;38.97;;
16436;SDS011;8328;52.206;21.006;2024-02-23T07:25:41;109.68;;;41.55;;
16436;SDS011;8328;52.206;21.006;2024-02-23T07:28:07;102.87;;;40.30;;
16436;SDS011;8328;52.206;21.006;2024-02-23T07:30:33;106.53;;;40.20;;
16436;SDS011;8328;52.206;21.006;2024-02-23T07:33:00;102.88;;;38.97;;
16436;SDS011;8328;52.206;21.006;2024-02-23T07:35:29;104.43;;;39.40;;
16436;SDS011;8328;52.206;21.006;2024-02-23T07:37:55;108.80;;;41.08;;
16436;SDS011;8328;52.206;21.006;2024-02-23T07:40:24;104.88;;;39.40;;
16436;SDS011;8328;52.206;21.006;2024-02-23T07:42:49;104.90;;;39.50;;
16436;SDS011;8328;52.206;21.006;2024-02-23T07:45:15;107.93;;;40.80;;
16436;SDS011;8328;52.206;21.006;2024-02-23T07:47:41;104.78;;;40.25;;
16436;SDS011;8328;52.206;21.006;2024-02-23T07:50:07;105.07;;;39.70;;
16436;SDS011;8328;52.206;21.006;2024-02-23T07:52:33;103.93;;;39.45;;
16436;SDS011;8328;52.206;21.006;2024-02-23T07:54:59;105.83;;;40.23;;
16436;SDS011;8328;52.206;21.006;2024-02-23T07:57:27;112.28;;;40.92;;
16436;SDS011;8328;52.206;21.006;2024-02-23T07:59:53;104.37;;;39.43;;
16436;SDS011;8328;52.206;21.006;2024-02-23T08:02:19;106.63;;;40.30;;
16436;SDS011;8328;52.206;21.006;2024-02-23T08:04:45;105.50;;;40.03;;
16436;SDS011;8328;52.206;21.006;2024-02-23T08:07:12;105.97;;;40.10;;
16436;SDS011;8328;52.206;21.006;2024-02-23T08:09:38;107.63;;;40.15;;
16436;SDS011;8328;52.206;21.006;2024-02-23T08:12:04;108.87;;;41.03;;
16436;SDS011;8328;52.206;21.006;2024-02-23T08:14:30;108.50;;;40.80;;
16436;SDS011;8328;52.206;21.006;2024-02-23T08:16:57;106.13;;;39.63;;
16436;SDS011;8328;52.206;21.006;2024-02-23T08:19:23;104.37;;;39.30;;
16436;SDS011;8328;52.206;21.006;2024-02-23T08:21:49;106.80;;;40.17;;
16436;SDS011;8328;52.206;21.006;2024-02-23T08:24:15;106.20;;;39.47;;
16436;SDS011;8328;52.206;21.006;2024-02-23T08:26:41;107.70;;;40.67;;
16436;SDS011;8328;52.206;21.006;2024-02-23T08:29:07;106.63;;;40.08;;
16436;SDS011;8328;52.206;21.006;2024-02-23T08:31:34;109.78;;;40.97;;
16436;SDS011;8328;52.206;21.006;2024-02-23T08:34:00;109.43;;;41.42;;
16436;SDS011;8328;52.206;21.006;2024-02-23T08:36:25;108.60;;;40.77;;
16436;SDS011;8328;52.206;21.006;2024-02-23T08:38:54;112.50;;;41.72;;
16436;SDS011;8328;52.206;21.006;2024-02-23T08:41:20;106.67;;;39.93;;
16436;SDS011;8328;52.206;21.006;2024-02-23T08:43:45;108.77;;;40.40;;
16436;SDS011;8328;52.206;21.006;2024-02-23T08:46:11;108.53;;;40.07;;
16436;SDS011;8328;52.206;21.006;2024-02-23T08:48:38;110.00;;;41.13;;
16436;SDS011;8328;52.206;21.006;2024-02-23T08:51:03;106.93;;;40.00;;
16436;SDS011;8328;52.206;21.006;2024-02-23T08:53:29;108.50;;;40.17;;
16436;SDS011;8328;52.206;21.006;2024-02-23T08:55:55;105.10;;;39.05;;
16436;SDS011;8328;52.206;21.006;2024-02-23T08:58:25;108.07;;;40.53;;
16436;SDS011;8328;52.206;21.006;2024-02-23T09:00:51;107.80;;;40.10;;
16436;SDS011;8328;52.206;21.006;2024-02-23T09:03:17;106.33;;;39.90;;
16436;SDS011;8328;52.206;21.006;2024-02-23T09:05:43;109.10;;;41.33;;
16436;SDS011;8328;52.206;21.006;2024-02-23T09:08:09;109.72;;;40.90;;
16436;SDS011;8328;52.206;21.006;2024-02-23T09:10:35;112.60;;;41.88;;
16436;SDS011;8328;52.206;21.006;2024-02-23T09:13:01;107.20;;;40.47;;
16436;SDS011;8328;52.206;21.006;2024-02-23T09:15:28;109.05;;;40.78;;
16436;SDS011;8328;52.206;21.006;2024-02-23T09:17:54;108.80;;;40.93;;
16436;SDS011;8328;52.206;21.006;2024-02-23T09:20:19;109.07;;;40.67;;
16436;SDS011;8328;52.206;21.006;2024-02-23T09:22:45;106.93;;;39.77;;
16436;SDS011;8328;52.206;21.006;2024-02-23T09:25:12;108.47;;;39.85;;
16436;SDS011;8328;52.206;21.006;2024-02-23T09:27:37;110.03;;;40.57;;
16436;SDS011;8328;52.206;21.006;2024-02-23T09:30:08;112.78;;;41.92;;
16436;SDS011;8328;52.206;21.006;2024-02-23T09:32:38;110.47;;;40.40;;
16436;SDS011;8328;52.206;21.006;2024-02-23T09:35:04;109.53;;;40.30;;
16436;SDS011;8328;52.206;21.006;2024-02-23T09:37:31;112.47;;;41.22;;
16436;SDS011;8328;52.206;21.006;2024-02-23T09:39:57;111.28;;;41.33;;
16436;SDS011;8328;52.206;21.006;2024-02-23T09:42:23;107.53;;;39.93;;
16436;SDS011;8328;52.206;21.006;2024-02-23T09:44:54;110.95;;;41.00;;
16436;SDS011;8328;52.206;21.006;2024-02-23T09:47:24;112.10;;;41.30;;
16436;SDS011;8328;52.206;21.006;2024-02-23T09:49:54;108.43;;;40.53;;
16436;SDS011;8328;52.206;21.006;2024-02-23T09:52:23;110.28;;;40.92;;
16436;SDS011;8328;52.206;21.006;2024-02-23T09:54:49;107.07;;;39.70;;
16436;SDS011;8328;52.206;21.006;2024-02-23T09:57:15;108.60;;;40.40;;
16436;SDS011;8328;52.206;21.006;2024-02-23T09:59:44;107.70;;;39.97;;
16436;SDS011;8328;52.206;21.006;2024-02-23T10:02:13;108.75;;;40.20;;
16436;SDS011;8328;52.206;21.006;2024-02-23T10:04:40;109.20;;;40.92;;
16436;SDS011;8328;52.206;21.006;2024-02-23T10:07:08;108.05;;;40.60;;
16436;SDS011;8328;52.206;21.006;2024-02-23T10:09:34;109.80;;;40.83;;
16436;SDS011;8328;52.206;21.006;2024-02-23T10:12:01;108.57;;;40.33;;
16436;SDS011;8328;52.206;21.006;2024-02-23T10:14:28;118.25;;;44.67;;
16436;SDS011;8328;52.206;21.006;2024-02-23T10:16:53;113.97;;;42.17;;
16436;SDS011;8328;52.206;21.006;2024-02-23T10:19:20;110.97;;;40.85;;
16436;SDS011;8328;52.206;21.006;2024-02-23T10:21:46;113.18;;;41.85;;
16436;SDS011;8328;52.206;21.006;2024-02-23T10:24:12;113.45;;;41.85;;
16436;SDS011;8328;52.206;21.006;2024-02-23T10:26:42;113.43;;;41.92;;
16436;SDS011;8328;52.206;21.006;2024-02-23T10:29:07;116.67;;;43.70;;
16436;SDS011;8328;52.206;21.006;2024-02-23T10:31:36;110.72;;;40.97;;
16436;SDS011;8328;52.206;21.006;2024-02-23T10:34:09;110.85;;;40.65;;
16436;SDS011;8328;52.206;21.006;2024-02-23T10:36:40;107.45;;;39.63;;
16436;SDS011;8328;52.206;21.006;2024-02-23T10:39:07;113.55;;;41.70;;
16436;SDS011;8328;52.206;21.006;2024-02-23T10:41:37;114.70;;;42.53;;
16436;SDS011;8328;52.206;21.006;2024-02-23T10:44:09;111.35;;;41.22;;
16436;SDS011;8328;52.206;21.006;2024-02-23T10:46:36;112.53;;;40.75;;
16436;SDS011;8328;52.206;21.006;2024-02-23T10:49:05;109.45;;;40.60;;
16436;SDS011;8328;52.206;21.006;2024-02-23T10:51:32;112.97;;;41.70;;
16436;SDS011;8328;52.206;21.006;2024-02-23T10:53:59;112.93;;;42.08;;
16436;SDS011;8328;52.206;21.006;2024-02-23T10:56:25;114.00;;;42.45;;
16436;SDS011;8328;52.206;21.006;2024-02-23T10:58:54;115.63;;;43.80;;
16436;SDS011;8328;52.206;21.006;2024-02-23T11:01:20;110.70;;;41.17;;
16436;SDS011;8328;52.206;21.006;2024-02-23T11:03:48;106.88;;;39.85;;
16436;SDS011;8328;52.206;21.006;2024-02-23T11:06:16;109.13;;;40.63;;
16436;SDS011;8328;52.206;21.006;2024-02-23T11:08:46;112.03;;;41.67;;
16436;SDS011;8328;52.206;21.006;2024-02-23T11:11:16;106.95;;;39.53;;
16436;SDS011;8328;52.206;21.006;2024-02-23T11:13:43;108.90;;;40.47;;
16436;SDS011;8328;52.206;21.006;2024-02-23T11:16:10;105.22;;;39.03;;
16436;SDS011;8328;52.206;21.006;2024-02-23T11:18:46;109.03;;;40.17;;
16436;SDS011;8328;52.206;21.006;2024-02-23T11:21:12;108.60;;;40.77;;
16436;SDS011;8328;52.206;21.006;2024-02-23T11:23:44;108.77;;;40.50;;
16436;SDS011;8328;52.206;21.006;2024-02-23T11:26:13;107.82;;;40.72;;
16436;SDS011;8328;52.206;21.006;2024-02-23T11:28:49;109.63;;;40.92;;
16436;SDS011;8328;52.206;21.006;2024-02-23T11:31:19;118.88;;;45.05;;
16436;SDS011;8328;52.206;21.006;2024-02-23T11:36:28;109.68;;;41.70;;
16436;SDS011;8328;52.206;21.006;2024-02-23T11:38:58;106.75;;;40.72;;
16436;SDS011;8328;52.206;21.006;2024-02-23T11:41:25;115.53;;;45.47;;
16436;SDS011;8328;52.206;21.006;2024-02-23T11:43:53;105.28;;;40.90;;
16436;SDS011;8328;52.206;21.006;2024-02-23T11:46:23;103.72;;;40.72;;
16436;SDS011;8328;52.206;21.006;2024-02-23T11:48:49;103.43;;;40.40;;
16436;SDS011;8328;52.206;21.006;2024-02-23T11:51:21;101.68;;;39.65;;
16436;SDS011;8328;52.206;21.006;2024-02-23T11:53:48;98.55;;;38.72;;
16436;SDS011;8328;52.206;21.006;2024-02-23T11:56:14;100.05;;;39.65;;
16436;SDS011;8328;52.206;21.006;2024-02-23T11:58:41;105.75;;;42.30;;
16436;SDS011;8328;52.206;21.006;2024-02-23T12:01:07;103.57;;;40.97;;
16436;SDS011;8328;52.206;21.006;2024-02-23T12:03:33;102.93;;;40.80;;
16436;SDS011;8328;52.206;21.006;2024-02-23T12:06:02;104.45;;;41.85;;
16436;SDS011;8328;52.206;21.006;2024-02-23T12:08:29;104.90;;;41.95;;
16436;SDS011;8328;52.206;21.006;2024-02-23T12:11:05;102.22;;;40.70;;
16436;SDS011;8328;52.206;21.006;2024-02-23T12:13:33;104.68;;;41.63;;
16436;SDS011;8328;52.206;21.006;2024-02-23T12:16:03;105.75;;;42.28;;
16436;SDS011;8328;52.206;21.006;2024-02-23T12:18:29;101.55;;;40.45;;
16436;SDS011;8328;52.206;21.006;2024-02-23T12:21:04;96.57;;;39.50;;
16436;SDS011;8328;52.206;21.006;2024-02-23T12:23:41;102.15;;;42.00;;
16436;SDS011;8328;52.206;21.006;2024-02-23T12:26:07;102.40;;;40.60;;
16436;SDS011;8328;52.206;21.006;2024-02-23T12:28:34;100.68;;;40.50;;
16436;SDS011;8328;52.206;21.006;2024-02-23T12:31:00;102.90;;;41.30;;
16436;SDS011;8328;52.206;21.006;2024-02-23T12:33:33;103.53;;;41.70;;
16436;SDS011;8328;52.206;21.006;2024-02-23T12:36:01;100.05;;;40.08;;
16436;SDS011;8328;52.206;21.006;2024-02-23T12:38:28;105.70;;;42.58;;
16436;SDS011;8328;52.206;21.006;2024-02-23T12:40:54;103.47;;;41.80;;
16436;SDS011;8328;52.206;21.006;2024-02-23T12:43:20;99.40;;;39.90;;
16436;SDS011;8328;52.206;21.006;2024-02-23T12:45:49;103.07;;;41.65;;
16436;SDS011;8328;52.206;21.006;2024-02-23T12:48:18;98.57;;;39.65;;
16436;SDS011;8328;52.206;21.006;2024-02-23T12:50:45;102.57;;;40.97;;
16436;SDS011;8328;52.206;21.006;2024-02-23T12:56:01;99.70;;;40.15;;
16436;SDS011;8328;52.206;21.006;2024-02-23T12:58:33;106.93;;;42.63;;
16436;SDS011;8328;52.206;21.006;2024-02-23T13:01:10;102.18;;;41.03;;
16436;SDS011;8328;52.206;21.006;2024-02-23T13:03:37;103.00;;;41.88;;
16436;SDS011;8328;52.206;21.006;2024-02-23T13:06:05;103.82;;;42.08;;
16436;SDS011;8328;52.206;21.006;2024-02-23T13:08:31;106.23;;;43.67;;
16436;SDS011;8328;52.206;21.006;2024-02-23T13:10:57;101.13;;;41.07;;
16436;SDS011;8328;52.206;21.006;2024-02-23T13:13:23;101.72;;;41.45;;
16436;SDS011;8328;52.206;21.006;2024-02-23T13:15:50;102.00;;;41.55;;
16436;SDS011;8328;52.206;21.006;2024-02-23T13:18:17;102.75;;;42.13;;
16436;SDS011;8328;52.206;21.006;2024-02-23T13:20:44;102.03;;;41.35;;
16436;SDS011;8328;52.206;21.006;2024-02-23T13:23:10;94.38;;;41.60;;
16436;SDS011;8328;52.206;21.006;2024-02-23T13:25:37;55.95;;;35.55;;
16436;SDS011;8328;52.206;21.006;2024-02-23T13:28:04;66.57;;;39.47;;
16436;SDS011;8328;52.206;21.006;2024-02-23T13:30:31;63.17;;;38.67;;
16436;SDS011;8328;52.206;21.006;2024-02-23T13:32:57;65.10;;;38.60;;
16436;SDS011;8328;52.206;21.006;2024-02-23T13:35:23;66.13;;;38.03;;
16436;SDS011;8328;52.206;21.006;2024-02-23T13:37:49;69.33;;;38.63;;
16436;SDS011;8328;52.206;21.006;2024-02-23T13:40:15;66.38;;;38.33;;
16436;SDS011;8328;52.206;21.006;2024-02-23T13:42:41;66.85;;;38.40;;
16436;SDS011;8328;52.206;21.006;2024-02-23T13:45:07;68.35;;;39.78;;
16436;SDS011;8328;52.206;21.006;2024-02-23T13:47:37;67.68;;;38.63;;
16436;SDS011;8328;52.206;21.006;2024-02-23T13:50:06;68.68;;;39.13;;
16436;SDS011;8328;52.206;21.006;2024-02-23T13:52:32;82.75;;;45.67;;
16436;SDS011;8328;52.206;21.006;2024-02-23T13:54:59;49.10;;;31.97;;
16436;SDS011;8328;52.206;21.006;2024-02-23T13:57:25;42.28;;;28.90;;
16436;SDS011;8328;52.206;21.006;2024-02-23T13:59:54;62.53;;;36.80;;
16436;SDS011;8328;52.206;21.006;2024-02-23T14:02:29;60.63;;;36.87;;
16436;SDS011;8328;52.206;21.006;2024-02-23T14:05:00;66.22;;;37.92;;
16436;SDS011;8328;52.206;21.006;2024-02-23T14:07:31;61.78;;;36.53;;
16436;SDS011;8328;52.206;21.006;2024-02-23T14:09:58;56.08;;;36.38;;
16436;SDS011;8328;52.206;21.006;2024-02-23T14:12:24;42.95;;;29.35;;
16436;SDS011;8328;52.206;21.006;2024-02-23T14:14:50;71.30;;;38.30;;
16436;SDS011;8328;52.206;21.006;2024-02-23T14:17:16;78.43;;;39.40;;
16436;SDS011;8328;52.206;21.006;2024-02-23T14:19:42;73.37;;;37.83;;